Wellsburg, Iowa
Current Conditions -  °F | °C
As of 4:55 PM on Saturday 25 Oct 2014 (Local Time) from KIFA Reporting Station
Clear Clear  
Wind Chill: 67°   Ceiling: Unl
Heat Index: 67°   Visibility: 10mi
Dew Point: 34°   Wind: 7mph
Humidity: 30%   Direction: 330°NNW
Pressure: 30.08"   Gusts: NA
Location:  42.46°N, 92.94°W
Report Text: KIFA 252155Z AUTO 33006KT 10SM CLR 19/01 A3008 RMK AO2 T01920010
Loading
Personal Weather Stations






























Interactive Weather Map
Tropical Storm Tracking
New forecast layout! Learn more

10-Day Weather Forecast

Advertisements
Track Severe Weather on mobile